Time;durP1;ratioP1;P1;durP2;ratioP2;P2;SDS_P1;SDS_P2;PMS_P1;PMS_P2;Temp;Humidity;BMP_temperature;BMP_pressure;BME280_temperature;BME280_humidity;BME280_pressure;Samples;Min_cycle;Max_cycle;Signal;HPM_P1;HPM_P2
2023/09/15 00:00:12;;;;;;;3.00;2.33;;;;;;;22.81;50.04;102049.66;5120070;28;20020;-73
2023/09/15 00:02:37;;;;;;;3.00;1.83;;;;;;;22.80;49.83;102042.56;5111083;28;20090;-73
2023/09/15 00:05:03;;;;;;;2.70;1.85;;;;;;;22.82;49.80;102043.25;5115537;28;20111;-73
2023/09/15 00:07:29;;;;;;;2.03;1.67;;;;;;;22.67;50.19;102027.63;5119097;28;20385;-73
2023/09/15 00:09:55;;;;;;;2.92;1.83;;;;;;;22.81;50.00;102047.84;5109520;28;20035;-73
2023/09/15 00:12:20;;;;;;;2.65;1.95;;;;;;;22.57;49.64;102007.97;5125558;28;20046;-73
2023/09/15 00:14:46;;;;;;;2.50;2.00;;;;;;;22.61;50.26;102036.44;5118209;27;20511;-73
2023/09/15 00:17:12;;;;;;;2.35;1.70;;;;;;;22.79;49.65;102040.88;5110692;28;20024;-73
2023/09/15 00:19:40;;;;;;;2.67;2.05;;;;;;;22.75;49.98;102034.09;5121402;28;20758;-73
2023/09/15 00:22:05;;;;;;;2.55;1.67;;;;;;;22.58;49.79;102012.38;5106961;28;20020;-73
2023/09/15 00:24:30;;;;;;;2.17;1.80;;;;;;;22.76;49.75;102047.47;5114385;28;20024;-73
2023/09/15 00:26:56;;;;;;;4.18;2.28;;;;;;;22.59;49.61;102010.50;5120854;28;20461;-73
2023/09/15 00:29:21;;;;;;;4.03;2.00;;;;;;;22.41;49.72;101989.78;5106570;28;20028;-73
2023/09/15 00:31:47;;;;;;;3.13;1.85;;;;;;;22.74;49.86;102035.09;5111292;28;20028;-73
2023/09/15 00:34:14;;;;;;;3.38;2.10;;;;;;;22.72;49.75;102040.69;5107118;28;20020;-73
2023/09/15 00:36:39;;;;;;;4.40;1.95;;;;;;;22.54;49.54;102005.56;5106151;28;20024;-74
2023/09/15 00:39:05;;;;;;;2.80;2.03;;;;;;;22.49;49.45;101998.97;5111542;28;20059;-73
2023/09/15 00:41:30;;;;;;;3.35;2.10;;;;;;;22.69;49.73;102036.44;5107231;28;20019;-73
2023/09/15 00:43:55;;;;;;;4.25;2.20;;;;;;;22.68;49.40;102036.59;5108716;28;20035;-73
2023/09/15 00:46:21;;;;;;;2.72;1.95;;;;;;;22.55;49.49;102017.25;5120391;28;20469;-73
2023/09/15 00:48:48;;;;;;;4.00;2.25;;;;;;;22.67;49.60;102034.91;5111403;28;20039;-73
2023/09/15 00:51:14;;;;;;;2.45;2.03;;;;;;;22.65;49.59;102026.97;5113571;28;20078;-73
2023/09/15 00:53:39;;;;;;;2.72;1.73;;;;;;;22.54;49.65;102008.28;5105945;28;20053;-73
2023/09/15 00:56:06;;;;;;;2.42;1.67;;;;;;;22.41;49.62;101986.25;5117400;28;20051;-73
2023/09/15 00:58:32;;;;;;;2.38;1.67;;;;;;;22.43;49.41;101984.22;5111681;28;20061;-73
2023/09/15 01:00:58;;;;;;;2.20;1.50;;;;;;;22.39;49.48;101982.88;5109479;28;20027;-73
2023/09/15 01:03:24;;;;;;;2.47;1.95;;;;;;;22.62;49.56;102018.31;5110875;28;20034;-73
2023/09/15 01:05:50;;;;;;;2.72;2.10;;;;;;;22.62;49.50;102021.00;5123954;28;20031;-73
2023/09/15 01:08:16;;;;;;;3.10;1.60;;;;;;;22.61;49.83;102016.63;5110196;28;20043;-73
2023/09/15 01:10:41;;;;;;;2.78;1.92;;;;;;;22.56;49.62;102017.13;5111773;28;20103;-74
2023/09/15 01:13:06;;;;;;;3.30;1.90;;;;;;;22.35;49.41;101976.06;5098835;28;20020;-73
2023/09/15 01:15:54;;;;;;;2.47;1.70;;;;;;;22.57;49.60;102017.97;5116236;27;20030;-73
2023/09/15 01:18:56;;;;;;;2.30;1.77;;;;;;;22.56;49.57;102006.28;5110214;28;20113;-73
2023/09/15 01:21:24;;;;;;;3.70;2.30;;;;;;;22.56;49.50;102005.44;5114949;28;20053;-73
2023/09/15 01:23:53;;;;;;;2.90;1.90;;;;;;;22.42;49.35;101988.78;5113839;28;20464;-73
2023/09/15 01:26:32;;;;;;;2.90;1.95;;;;;;;22.54;49.35;102013.72;5109417;28;20044;-73
2023/09/15 01:29:14;;;;;;;3.03;2.15;;;;;;;22.26;49.30;101961.66;5118061;28;20024;-74
2023/09/15 01:31:40;;;;;;;2.95;1.83;;;;;;;22.41;49.34;101984.38;5118656;28;20028;-73
2023/09/15 01:34:05;;;;;;;2.50;1.83;;;;;;;22.51;49.37;102002.34;5110827;28;20030;-73
2023/09/15 01:36:31;;;;;;;2.10;1.67;;;;;;;22.51;49.37;102002.34;5119913;28;20102;-73
2023/09/15 01:38:56;;;;;;;3.10;2.00;;;;;;;22.42;49.08;101991.47;5108637;28;20035;-73
2023/09/15 01:41:21;;;;;;;3.13;1.83;;;;;;;22.42;49.45;101990.63;5114186;28;20079;-73
2023/09/15 01:43:47;;;;;;;2.78;1.80;;;;;;;22.48;49.23;102000.84;5115426;28;20023;-73
2023/09/15 01:46:12;;;;;;;2.53;1.77;;;;;;;22.39;49.08;101980.16;5107153;28;20020;-73
2023/09/15 01:48:37;;;;;;;2.55;1.85;;;;;;;22.46;49.28;101995.56;5115040;28;20051;-73
2023/09/15 01:51:03;;;;;;;2.78;1.80;;;;;;;22.46;49.22;101997.44;5103562;28;20028;-73
2023/09/15 01:53:29;;;;;;;2.88;1.90;;;;;;;22.27;49.12;101971.47;5106376;28;20039;-73
2023/09/15 01:55:54;;;;;;;2.92;1.98;;;;;;;22.17;49.22;101949.09;5117120;28;20031;-73
2023/09/15 01:58:20;;;;;;;4.25;2.50;;;;;;;22.13;48.99;101951.31;5117385;28;20032;-73
2023/09/15 02:00:45;;;;;;;2.25;1.60;;;;;;;22.21;49.03;101958.56;5108592;28;20035;-74
2023/09/15 02:03:12;;;;;;;3.65;1.70;;;;;;;22.36;49.13;101984.03;5118433;28;20045;-73
2023/09/15 02:05:37;;;;;;;2.50;1.70;;;;;;;22.42;49.14;101998.75;5115270;28;20128;-73
2023/09/15 02:08:03;;;;;;;2.53;1.50;;;;;;;22.24;49.02;101960.13;5091902;28;20492;-73
2023/09/15 02:10:28;;;;;;;2.83;2.08;;;;;;;22.33;48.86;101972.66;5120420;28;20135;-73
2023/09/15 02:12:54;;;;;;;2.97;1.85;;;;;;;22.39;49.19;101988.28;5113548;28;20035;-73
2023/09/15 02:15:19;;;;;;;2.20;1.75;;;;;;;22.32;48.83;101984.53;5119594;27;20392;-73
2023/09/15 02:17:44;;;;;;;1.98;1.52;;;;;;;22.36;49.02;101977.75;5104551;28;20047;-73
2023/09/15 02:20:12;;;;;;;2.63;1.90;;;;;;;22.28;48.63;101972.31;5110160;28;20024;-73
2023/09/15 02:22:41;;;;;;;3.03;1.92;;;;;;;22.34;48.99;101986.03;5118719;28;20027;-73
2023/09/15 02:25:07;;;;;;;;;;;;;;;22.33;48.88;101984.34;5116477;28;20028;-73
2023/09/15 02:27:32;;;;;;;3.28;1.80;;;;;;;22.26;48.77;101971.63;5108384;28;19912;-73
2023/09/15 02:29:57;;;;;;;2.40;1.70;;;;;;;22.30;48.88;101984.72;5116525;28;20038;-73
2023/09/15 02:32:23;;;;;;;3.88;1.92;;;;;;;22.28;49.06;101977.75;5113850;28;20046;-73
2023/09/15 02:34:48;;;;;;;2.50;1.80;;;;;;;22.28;48.91;101975.03;5106732;28;20032;-73
2023/09/15 02:37:15;;;;;;;3.25;1.92;;;;;;;22.27;48.82;101976.91;5118760;28;20865;-73
2023/09/15 02:39:40;;;;;;;2.75;2.15;;;;;;;22.12;48.83;101954.13;5120806;28;20787;-73
2023/09/15 02:42:05;;;;;;;2.15;1.75;;;;;;;22.00;48.85;101933.75;5108185;28;20031;-73
2023/09/15 02:44:32;;;;;;;2.33;1.70;;;;;;;22.17;48.97;101962.63;5108173;28;20030;-73
2023/09/15 02:46:57;;;;;;;2.90;1.85;;;;;;;22.23;48.79;101974.69;5104636;28;20024;-73
2023/09/15 02:49:23;;;;;;;2.47;1.63;;;;;;;22.07;48.80;101948.34;5108951;28;20047;-74
2023/09/15 02:51:48;;;;;;;3.03;1.83;;;;;;;22.23;48.88;101970.13;5107920;28;20024;-73
2023/09/15 02:54:13;;;;;;;2.83;1.58;;;;;;;22.22;48.94;101971.13;5106207;28;20020;-73
2023/09/15 02:56:38;;;;;;;2.55;1.80;;;;;;;21.96;48.64;101927.81;5107658;28;20021;-73
2023/09/15 02:59:04;;;;;;;2.38;1.85;;;;;;;22.20;48.61;101967.72;5105655;28;20024;-73
2023/09/15 03:01:29;;;;;;;2.10;1.73;;;;;;;22.19;48.65;101969.59;5105262;28;20032;-73
2023/09/15 03:03:55;;;;;;;2.60;1.70;;;;;;;22.19;48.73;101966.03;5110041;28;20032;-73
2023/09/15 03:06:20;;;;;;;3.25;1.52;;;;;;;21.93;48.35;101926.31;5106485;28;20024;-73
2023/09/15 03:08:46;;;;;;;2.42;1.70;;;;;;;22.17;48.58;101973.47;5107002;28;20073;-73
2023/09/15 03:11:13;;;;;;;3.42;1.83;;;;;;;22.16;48.68;101972.63;5109048;28;20032;-73
2023/09/15 03:13:38;;;;;;;3.47;1.70;;;;;;;22.16;48.71;101969.06;5108839;28;20023;-73
2023/09/15 03:16:08;;;;;;;2.35;1.40;;;;;;;21.99;48.52;101949.16;5109557;28;20031;-73
2023/09/15 03:18:33;;;;;;;3.40;1.63;;;;;;;22.14;48.61;101965.69;5108256;28;20493;-73
2023/09/15 03:21:01;;;;;;;3.00;1.88;;;;;;;22.08;48.88;101953.59;5091007;28;20024;-73
2023/09/15 03:23:26;;;;;;;2.63;1.80;;;;;;;22.02;48.54;101948.84;5107736;28;20036;-73
2023/09/15 03:26:01;;;;;;;3.13;1.77;;;;;;;21.88;48.47;101925.97;5110747;28;20030;-73
2023/09/15 03:28:27;;;;;;;2.80;1.58;;;;;;;22.02;48.73;101945.28;5119101;28;20016;-73
2023/09/15 03:30:52;;;;;;;2.88;1.55;;;;;;;22.09;48.73;101960.72;5108584;28;20084;-73
2023/09/15 03:33:18;;;;;;;2.60;1.70;;;;;;;22.09;48.66;101968.84;5113004;28;20465;-73
2023/09/15 03:35:43;;;;;;;3.08;1.80;;;;;;;22.02;48.68;101954.28;5110792;28;20043;-73
2023/09/15 03:38:09;;;;;;;2.30;1.55;;;;;;;21.95;48.64;101940.53;5114403;28;20031;-74
2023/09/15 03:40:34;;;;;;;2.00;1.40;;;;;;;22.07;48.60;101964.59;5116342;28;20030;-73
2023/09/15 03:42:59;;;;;;;3.20;1.70;;;;;;;21.85;48.53;101920.03;5110793;28;20059;-73
2023/09/15 03:45:25;;;;;;;2.22;1.70;;;;;;;22.06;48.31;101960.22;5115463;28;20043;-73
2023/09/15 03:47:50;;;;;;;2.92;1.40;;;;;;;22.04;48.46;101960.34;5116658;28;20362;-73
2023/09/15 03:50:19;;;;;;;1.95;1.50;;;;;;;22.03;48.31;101955.13;5115043;28;20032;-73
2023/09/15 03:52:45;;;;;;;2.63;1.65;;;;;;;;;;5119098;28;20024;-73
2023/09/15 03:55:10;;;;;;;3.72;1.95;;;;;;;21.94;48.68;101943.41;5115923;28;20028;-73
2023/09/15 03:57:37;;;;;;;2.47;1.70;;;;;;;22.01;48.33;101946.31;5111228;28;20072;-73
2023/09/15 04:00:04;;;;;;;2.28;1.63;;;;;;;21.95;48.29;101936.97;5107546;28;20027;-73
2023/09/15 04:02:29;;;;;;;3.70;1.52;;;;;;;21.96;48.31;101936.81;5119122;28;20016;-73
2023/09/15 04:04:54;;;;;;;2.50;1.50;;;;;;;21.96;48.56;101939.53;5112316;28;20042;-73
2023/09/15 04:07:20;;;;;;;2.45;1.67;;;;;;;21.84;48.09;101919.19;5123515;28;20023;-73
2023/09/15 04:09:45;;;;;;;3.83;1.75;;;;;;;21.84;48.30;101913.75;5117307;28;20497;-73
2023/09/15 04:12:10;;;;;;;2.47;1.75;;;;;;;21.80;48.46;101908.84;5125101;28;20019;-73
2023/09/15 04:14:36;;;;;;;2.45;1.55;;;;;;;21.76;48.27;101894.78;5121574;28;20031;-73
2023/09/15 04:17:04;;;;;;;2.80;1.70;;;;;;;21.78;48.35;101902.72;5114026;28;20016;-73
2023/09/15 04:19:30;;;;;;;2.28;1.50;;;;;;;21.92;48.13;101926.50;5119641;28;20081;-73
2023/09/15 04:21:55;;;;;;;2.40;1.50;;;;;;;21.77;48.40;101899.19;5107034;28;20023;-73
2023/09/15 04:24:20;;;;;;;3.80;1.48;;;;;;;21.73;48.00;101895.09;5110222;28;20028;-73
2023/09/15 04:26:46;;;;;;;3.35;1.70;;;;;;;21.88;48.04;101936.78;5118235;28;20024;-73
2023/09/15 04:29:11;;;;;;;2.72;1.70;;;;;;;21.73;48.14;101902.38;5114977;28;20527;-73
2023/09/15 04:31:37;;;;;;;2.35;1.42;;;;;;;21.80;48.02;101915.09;5108274;28;20020;-73
2023/09/15 04:34:03;;;;;;;2.05;1.50;;;;;;;21.82;48.21;101915.78;5121447;28;20019;-73
2023/09/15 04:36:29;;;;;;;2.80;1.80;;;;;;;21.87;48.24;101921.53;5123330;28;20114;-74
2023/09/15 04:38:55;;;;;;;3.05;1.60;;;;;;;21.86;48.15;101925.25;5110143;28;20092;-74
2023/09/15 04:41:21;;;;;;;2.97;1.55;;;;;;;21.86;48.29;101932.53;5120711;28;20023;-73
2023/09/15 04:43:47;;;;;;;2.10;1.42;;;;;;;21.73;48.16;101907.78;5112528;28;20501;-76
2023/09/15 04:46:12;;;;;;;2.47;1.67;;;;;;;21.79;48.07;101917.94;5113363;28;20039;-76
2023/09/15 04:48:38;;;;;;;2.45;1.50;;;;;;;21.82;48.26;101936.59;5101330;28;20021;-76
2023/09/15 04:51:03;;;;;;;3.28;1.65;;;;;;;21.83;47.91;101932.84;5113980;28;20553;-76
2023/09/15 04:53:28;;;;;;;1.90;1.40;;;;;;;21.70;48.21;101914.38;5111387;28;20027;-76
2023/09/15 04:55:54;;;;;;;1.98;1.42;;;;;;;21.81;48.19;101938.44;5115038;28;20031;-73
2023/09/15 04:58:19;;;;;;;1.77;1.30;;;;;;;21.78;48.30;101927.09;5106860;28;20032;-76
2023/09/15 05:00:45;;;;;;;2.17;1.30;;;;;;;21.68;48.20;101919.09;5110871;28;20032;-76
2023/09/15 05:03:11;;;;;;;3.08;1.70;;;;;;;21.80;48.31;101938.63;5107350;28;20024;-76
2023/09/15 05:05:36;;;;;;;2.55;1.80;;;;;;;21.79;48.02;101936.91;5102455;28;20024;-73
2023/09/15 05:08:02;;;;;;;2.92;2.10;;;;;;;21.41;48.25;101885.00;5112513;28;20743;-73
2023/09/15 05:10:27;;;;;;;3.15;2.00;;;;;;;21.77;48.16;101949.75;5105329;28;20035;-73
2023/09/15 05:12:53;;;;;;;2.50;1.50;;;;;;;21.56;47.84;101918.53;5121422;28;20524;-73
2023/09/15 05:15:18;;;;;;;2.20;1.60;;;;;;;21.75;47.91;101941.81;5119266;27;20591;-73
2023/09/15 05:17:44;;;;;;;2.58;1.80;;;;;;;21.74;48.17;101942.81;5116791;28;20032;-73
2023/09/15 05:20:10;;;;;;;2.97;1.75;;;;;;;21.74;47.98;101936.53;5110492;27;20023;-73
2023/09/15 05:22:35;;;;;;;2.45;1.80;;;;;;;21.65;48.20;101930.25;5113653;28;20035;-73
2023/09/15 05:25:04;;;;;;;2.70;1.60;;;;;;;21.72;48.18;101942.13;5109794;28;20124;-73
2023/09/15 05:27:30;;;;;;;2.75;1.65;;;;;;;21.71;47.71;101932.31;5114419;28;20423;-73
2023/09/15 05:29:55;;;;;;;2.22;1.45;;;;;;;21.44;48.04;101893.63;5111056;28;20499;-73
2023/09/15 05:32:21;;;;;;;2.30;1.70;;;;;;;21.70;47.93;101944.13;5119990;28;20028;-73
2023/09/15 05:34:46;;;;;;;1.90;1.30;;;;;;;21.52;47.73;101913.63;5111239;28;20050;-73
2023/09/15 05:37:12;;;;;;;2.83;1.50;;;;;;;21.68;47.90;101941.59;5110652;28;20647;-73
2023/09/15 05:39:37;;;;;;;1.38;1.25;;;;;;;21.66;47.77;101938.22;5108428;28;20024;-73
2023/09/15 05:42:02;;;;;;;2.17;1.40;;;;;;;21.66;47.84;101938.22;5113833;28;20027;-73
2023/09/15 05:44:28;;;;;;;2.50;1.90;;;;;;;21.41;48.19;101895.81;5112700;28;20016;-73
2023/09/15 05:46:53;;;;;;;1.90;1.42;;;;;;;21.64;47.81;101936.69;5107954;28;20032;-73
2023/09/15 05:49:18;;;;;;;2.55;1.80;;;;;;;21.63;47.81;101938.53;5121616;28;20031;-73
2023/09/15 05:51:44;;;;;;;2.08;1.40;;;;;;;21.35;47.77;101888.34;5110288;28;20036;-73
2023/09/15 05:54:09;;;;;;;2.13;1.35;;;;;;;21.30;47.72;101898.75;5120061;28;20020;-73
2023/09/15 05:56:34;;;;;;;2.35;1.50;;;;;;;21.37;47.93;101907.97;5115064;28;20032;-73
2023/09/15 05:58:59;;;;;;;1.92;1.70;;;;;;;21.63;47.66;101953.94;5111093;28;20024;-75
2023/09/15 06:01:25;;;;;;;3.13;1.50;;;;;;;21.25;47.78;101890.28;5108318;28;20612;-73
2023/09/15 06:03:50;;;;;;;1.95;1.40;;;;;;;21.60;47.82;101957.81;5105198;28;20020;-73
2023/09/15 06:06:16;;;;;;;3.03;1.60;;;;;;;21.42;47.74;101922.69;5117070;28;20324;-73
2023/09/15 06:08:41;;;;;;;2.53;1.40;;;;;;;21.59;47.80;101952.56;5110133;28;20497;-73
2023/09/15 06:11:07;;;;;;;2.60;1.60;;;;;;;21.52;48.06;101940.66;5120437;28;20031;-73
2023/09/15 06:13:33;;;;;;;1.90;1.40;;;;;;;21.39;48.01;101925.72;5115389;27;20032;-73
2023/09/15 06:15:58;;;;;;;2.15;1.50;;;;;;;21.35;48.02;101924.34;5112640;28;20034;-73
2023/09/15 06:18:24;;;;;;;1.95;1.35;;;;;;;21.35;47.88;101923.50;5120192;28;20024;-73
2023/09/15 06:20:49;;;;;;;2.65;1.60;;;;;;;21.57;47.91;101957.28;5113587;28;20085;-73
2023/09/15 06:23:14;;;;;;;3.05;1.70;;;;;;;21.57;47.60;101954.56;5123136;28;20032;-73
2023/09/15 06:25:40;;;;;;;2.85;1.70;;;;;;;21.31;47.77;101914.81;5118624;28;20069;-73
2023/09/15 06:28:06;;;;;;;2.85;1.40;;;;;;;21.56;47.71;101959.13;5111028;28;20122;-73
2023/09/15 06:30:31;;;;;;;3.38;1.75;;;;;;;21.49;48.01;101943.69;5101204;28;20111;-76
2023/09/15 06:32:56;;;;;;;2.00;1.67;;;;;;;21.54;47.88;101952.19;5111996;28;20031;-76
2023/09/15 06:35:23;;;;;;;2.22;1.70;;;;;;;21.41;47.97;101937.25;5107175;28;20115;-74
2023/09/15 06:37:48;;;;;;;2.90;1.52;;;;;;;21.40;48.06;101935.53;5122487;28;20047;-74
2023/09/15 06:40:13;;;;;;;2.75;1.55;;;;;;;21.41;47.94;101939.09;5114258;28;20388;-74
2023/09/15 06:42:39;;;;;;;2.00;1.80;;;;;;;21.54;47.80;101965.72;5109369;28;20102;-75
2023/09/15 06:45:05;;;;;;;2.53;1.55;;;;;;;21.29;47.99;101922.25;5119052;28;20034;-75
2023/09/15 06:47:31;;;;;;;2.67;1.42;;;;;;;21.52;48.04;101959.63;5109035;28;20035;-75
2023/09/15 06:49:56;;;;;;;1.63;1.23;;;;;;;21.52;48.18;101963.16;5122777;28;20027;-76
2023/09/15 06:52:21;;;;;;;1.88;1.33;;;;;;;21.52;48.31;101960.47;5114966;28;20107;-76
2023/09/15 06:54:46;;;;;;;2.15;1.48;;;;;;;21.46;47.85;101953.84;5108048;28;20028;-75
2023/09/15 06:57:12;;;;;;;4.75;1.60;;;;;;;21.38;48.14;101934.00;5113029;28;20020;-73
2023/09/15 06:59:37;;;;;;;2.30;1.80;;;;;;;21.45;48.33;101953.97;5115312;28;20024;-73
2023/09/15 07:02:02;;;;;;;2.70;1.60;;;;;;;21.51;47.92;101964.19;5107753;28;20039;-73
2023/09/15 07:04:29;;;;;;;2.95;1.50;;;;;;;21.29;48.11;101930.38;5115371;28;20024;-73
2023/09/15 07:06:54;;;;;;;2.53;1.67;;;;;;;21.26;48.13;101925.28;5109772;28;20024;-72
2023/09/15 07:09:20;;;;;;;2.47;1.70;;;;;;;21.35;47.90;101935.16;5116561;28;20044;-76
2023/09/15 07:11:45;;;;;;;2.97;2.22;;;;;;;21.51;48.00;101955.22;5091617;28;20028;-76
2023/09/15 07:14:10;;;;;;;2.00;1.40;;;;;;;21.20;47.90;101910.53;5106323;28;20016;-73
2023/09/15 07:16:38;;;;;;;2.08;1.50;;;;;;;21.30;48.06;101917.69;5107658;28;20122;-73
2023/09/15 07:19:04;;;;;;;2.50;1.75;;;;;;;21.43;48.05;101942.50;5104488;28;20027;-73
2023/09/15 07:21:29;;;;;;;2.83;1.88;;;;;;;21.51;47.94;101953.34;5120045;28;20066;-73
2023/09/15 07:23:55;;;;;;;3.30;1.65;;;;;;;21.19;48.32;101899.88;5107845;28;20046;-73
2023/09/15 07:26:21;;;;;;;3.00;1.70;;;;;;;21.31;48.06;101917.53;5111345;28;20106;-73
2023/09/15 07:28:47;;;;;;;1.95;1.45;;;;;;;21.30;48.44;101917.69;5109189;28;20080;-73
2023/09/15 07:31:15;;;;;;;2.67;1.60;;;;;;;21.32;48.39;101911.13;5105152;28;20045;-73
2023/09/15 07:33:40;;;;;;;2.38;1.40;;;;;;;21.25;48.08;101895.69;5107579;28;20024;-73
2023/09/15 07:36:06;;;;;;;3.22;1.70;;;;;;;21.33;48.46;101898.47;5115715;28;20030;-73
2023/09/15 07:38:31;;;;;;;2.47;1.60;;;;;;;21.32;48.80;101897.59;5108696;28;20534;-73
2023/09/15 07:40:57;;;;;;;2.45;1.85;;;;;;;21.52;48.24;101928.00;5114650;28;20020;-72
2023/09/15 07:43:22;;;;;;;2.40;1.92;;;;;;;21.44;48.09;101917.97;5107320;28;20024;-73
2023/09/15 07:45:48;;;;;;;3.13;1.63;;;;;;;21.29;48.41;101892.50;5103571;28;20087;-73
2023/09/15 07:48:14;;;;;;;3.15;1.65;;;;;;;21.34;48.02;101889.34;5109946;28;20087;-74
2023/09/15 07:50:40;;;;;;;2.97;1.77;;;;;;;21.30;48.42;101886.06;5108522;28;20024;-74
2023/09/15 07:53:05;;;;;;;3.08;1.50;;;;;;;21.52;48.30;101922.56;5110836;28;20083;-75
2023/09/15 07:55:30;;;;;;;2.53;1.52;;;;;;;20.81;48.42;101795.72;5109044;28;20118;-74
2023/09/15 07:57:56;;;;;;;2.70;1.48;;;;;;;21.52;48.22;101914.47;5105608;28;20031;-75
2023/09/15 08:00:21;;;;;;;2.47;1.52;;;;;;;21.15;48.39;101857.91;5115083;28;20095;-74
2023/09/15 08:02:46;;;;;;;1.65;1.30;;;;;;;21.45;48.57;101900.75;5110020;28;20028;-75
2023/09/15 08:05:11;;;;;;;1.90;1.50;;;;;;;21.53;48.50;101909.88;5106964;28;20118;-75
2023/09/15 08:07:37;;;;;;;3.22;1.60;;;;;;;21.54;48.55;101903.50;5103665;28;20020;-74
2023/09/15 08:10:04;;;;;;;1.65;1.30;;;;;;;21.28;48.70;101863.78;5107807;28;20809;-74
2023/09/15 08:12:29;;;;;;;2.88;1.65;;;;;;;21.54;48.33;101900.78;5119866;28;20040;-73
2023/09/15 08:14:55;;;;;;;2.13;1.35;;;;;;;21.06;48.76;101827.28;5115989;28;20049;-74
2023/09/15 08:17:20;;;;;;;4.47;1.90;;;;;;;21.25;48.28;101855.13;5095019;28;20054;-74
2023/09/15 08:19:45;;;;;;;2.25;1.60;;;;;;;21.55;48.71;101891.66;5113353;28;20036;-74
2023/09/15 08:22:10;;;;;;;2.08;1.30;;;;;;;21.44;48.41;101868.41;5117883;28;20377;-74
2023/09/15 08:24:37;;;;;;;2.85;1.70;;;;;;;21.40;48.70;101867.88;5115790;28;20032;-74
2023/09/15 08:27:03;;;;;;;2.25;1.60;;;;;;;21.03;48.73;101811.41;5116508;28;20147;-74
2023/09/15 08:29:28;;;;;;;3.03;1.65;;;;;;;21.37;48.43;101865.53;5116796;28;20024;-74
2023/09/15 08:31:53;;;;;;;1.85;1.35;;;;;;;21.57;48.60;101892.31;5109354;28;20059;-74
2023/09/15 08:34:19;;;;;;;2.03;1.38;;;;;;;21.39;48.56;101868.06;5107007;28;20621;-74
2023/09/15 08:36:44;;;;;;;1.73;1.40;;;;;;;21.56;48.89;101888.78;5115210;28;20053;-74
2023/09/15 08:39:12;;;;;;;2.13;1.40;;;;;;;21.57;48.83;101890.47;5109856;28;20473;-74
2023/09/15 08:41:40;;;;;;;2.15;1.60;;;;;;;21.58;48.70;101891.31;5122646;28;20027;-74
2023/09/15 08:44:09;;;;;;;4.10;1.50;;;;;;;21.44;48.97;101873.84;5117007;28;20044;-74
2023/09/15 08:46:35;;;;;;;3.03;1.70;;;;;;;21.53;48.53;101886.38;5113168;28;20038;-74
2023/09/15 08:49:01;;;;;;;2.47;1.58;;;;;;;21.33;48.83;101858.75;5117779;28;20027;-74
2023/09/15 08:51:27;;;;;;;2.63;1.33;;;;;;;21.60;49.02;101897.41;5117320;28;20024;-74
2023/09/15 08:53:56;;;;;;;3.42;1.83;;;;;;;21.30;49.00;101855.47;5114300;28;20551;-74
2023/09/15 08:56:22;;;;;;;1.95;1.25;;;;;;;21.61;48.94;101904.53;5117679;28;20552;-74
2023/09/15 08:58:48;;;;;;;2.67;1.38;;;;;;;21.61;49.05;101902.66;5109390;28;20028;-74
2023/09/15 09:01:15;;;;;;;3.25;1.40;;;;;;;21.57;49.15;101884.19;5115317;28;20087;-74
2023/09/15 09:03:40;;;;;;;2.30;1.45;;;;;;;21.41;49.11;101861.50;5116937;28;20091;-74
2023/09/15 09:06:10;;;;;;;2.17;1.58;;;;;;;21.50;49.18;101867.78;5108917;28;20039;-74
2023/09/15 09:08:41;;;;;;;2.30;1.40;;;;;;;21.63;49.07;101886.28;5118161;28;20047;-74
2023/09/15 09:11:08;;;;;;;2.40;1.33;;;;;;;21.60;49.12;101881.19;5114969;28;20101;-74
2023/09/15 09:13:33;;;;;;;2.45;1.58;;;;;;;21.47;49.15;101862.69;5109143;27;20063;-74
2023/09/15 09:15:59;;;;;;;2.00;1.50;;;;;;;21.46;48.99;101852.88;5109219;28;20031;-74
2023/09/15 09:18:25;;;;;;;1.98;1.40;;;;;;;21.66;49.09;101885.94;5112378;28;20028;-74
2023/09/15 09:20:50;;;;;;;2.92;1.65;;;;;;;21.67;48.95;101885.78;5108448;28;20035;-74
2023/09/15 09:23:20;;;;;;;2.22;1.25;;;;;;;21.51;49.42;101866.78;5105247;28;20059;-74
2023/09/15 09:25:46;;;;;;;1.63;1.30;;;;;;;21.70;48.99;101890.00;5104259;28;20039;-74
2023/09/15 09:28:12;;;;;;;1.83;1.10;;;;;;;21.66;49.36;101881.38;5109348;28;20624;-75
2023/09/15 09:30:37;;;;;;;1.77;1.50;;;;;;;21.68;49.25;101873.09;5106310;28;20035;-74
2023/09/15 09:33:04;;;;;;;2.00;1.08;;;;;;;21.35;49.03;101823.41;5118978;28;20023;-74
2023/09/15 09:35:29;;;;;;;2.38;1.25;;;;;;;21.46;49.34;101837.50;5108962;28;20028;-74
2023/09/15 09:37:58;;;;;;;2.45;1.25;;;;;;;21.76;49.37;101875.00;5108804;28;20035;-74
2023/09/15 09:40:23;;;;;;;1.63;1.38;;;;;;;21.78;49.51;101876.50;5106852;28;20032;-74
2023/09/15 09:42:49;;;;;;;2.33;1.55;;;;;;;21.61;49.42;101843.13;5113088;28;20051;-74
2023/09/15 09:45:15;;;;;;;1.92;1.20;;;;;;;21.81;49.17;101872.63;5108139;28;20032;-74
2023/09/15 09:47:42;;;;;;;2.00;1.20;;;;;;;21.69;49.62;101845.84;5118794;28;20031;-74
2023/09/15 09:50:09;;;;;;;1.55;1.08;;;;;;;21.63;49.25;101833.00;5110980;28;20028;-74
2023/09/15 09:52:35;;;;;;;1.48;1.20;;;;;;;21.83;49.57;101863.31;5099990;28;20026;-74
2023/09/15 09:55:03;;;;;;;1.88;1.10;;;;;;;21.84;49.59;101853.34;5108903;28;20020;-74
2023/09/15 09:57:29;;;;;;;;;;;;;;;21.84;49.30;101843.38;5110344;28;20685;-74
2023/09/15 09:59:55;;;;;;;2.00;1.38;;;;;;;21.41;49.42;101791.16;5119245;28;19912;-74
2023/09/15 10:02:20;;;;;;;2.10;1.10;;;;;;;21.83;49.43;101844.38;5108610;28;20028;-74
2023/09/15 10:04:45;;;;;;;1.60;1.15;;;;;;;21.71;49.47;101821.34;5111615;28;20047;-74
2023/09/15 10:07:11;;;;;;;1.88;1.20;;;;;;;21.64;49.49;101804.91;5103914;28;20051;-75
2023/09/15 10:09:36;;;;;;;2.22;1.33;;;;;;;21.79;49.65;101831.31;5114697;28;20063;-74
2023/09/15 10:12:02;;;;;;;2.10;1.33;;;;;;;21.79;49.58;101829.50;5105005;28;20043;-74
2023/09/15 10:14:28;;;;;;;1.75;1.15;;;;;;;21.62;49.44;101792.53;5109954;27;20024;-74
2023/09/15 10:16:54;;;;;;;1.90;1.13;;;;;;;21.55;49.69;101776.13;5111363;28;20027;-75
2023/09/15 10:19:19;;;;;;;1.83;1.33;;;;;;;21.82;49.50;101826.44;5112001;28;20028;-74
2023/09/15 10:21:45;;;;;;;1.70;1.40;;;;;;;21.58;49.89;101797.47;5106587;28;20031;-74
2023/09/15 10:24:11;;;;;;;2.13;1.17;;;;;;;21.88;49.88;101838.47;5113743;28;20059;-74
2023/09/15 10:26:41;;;;;;;1.90;1.48;;;;;;;21.89;49.93;101834.75;5111920;28;20490;-74
2023/09/15 10:29:08;;;;;;;2.50;1.35;;;;;;;21.84;49.98;101819.00;5097517;28;20048;-74
2023/09/15 10:31:34;;;;;;;1.40;1.27;;;;;;;21.91;49.75;101827.28;5119346;28;20540;-74
2023/09/15 10:34:04;;;;;;;2.38;1.55;;;;;;;21.92;49.87;101829.84;5111760;28;20046;-74
2023/09/15 10:36:29;;;;;;;1.90;1.15;;;;;;;21.94;49.76;101825.09;5109930;28;20089;-74
2023/09/15 10:38:57;;;;;;;2.00;1.30;;;;;;;21.82;49.98;101812.06;5115160;28;20039;-74
2023/09/15 10:41:28;;;;;;;1.30;1.17;;;;;;;21.96;49.82;101823.09;5108694;28;20131;-75
2023/09/15 10:43:54;;;;;;;1.70;1.20;;;;;;;21.76;49.74;101789.22;5119278;28;20034;-74
2023/09/15 10:46:20;;;;;;;1.58;1.13;;;;;;;21.91;50.12;101806.47;5104015;28;20043;-74
2023/09/15 10:48:47;;;;;;;2.13;1.40;;;;;;;22.00;49.68;101825.44;5112831;28;20027;-74
2023/09/15 10:51:16;;;;;;;1.60;1.23;;;;;;;22.02;50.01;101818.03;5109513;28;20020;-74
2023/09/15 10:53:46;;;;;;;2.72;1.55;;;;;;;22.02;49.88;101813.44;5117743;28;20030;-74
2023/09/15 10:56:12;;;;;;;1.52;1.20;;;;;;;22.04;50.07;101810.56;5109544;28;20633;-74
2023/09/15 10:58:38;;;;;;;1.73;1.30;;;;;;;21.91;50.10;101794.81;5116313;28;20141;-74
2023/09/15 11:01:04;;;;;;;3.45;1.50;;;;;;;21.86;50.04;101775.50;5115520;28;20019;-74
2023/09/15 11:03:30;;;;;;;3.20;1.52;;;;;;;21.71;50.09;101751.81;5109270;28;20028;-74
2023/09/15 11:05:58;;;;;;;2.47;1.30;;;;;;;22.08;50.22;101812.75;5119797;28;20089;-74
2023/09/15 11:08:25;;;;;;;1.77;1.23;;;;;;;21.87;49.96;101766.38;5112930;28;20067;-74
2023/09/15 11:11:04;;;;;;;1.80;1.10;;;;;;;21.91;50.23;101770.44;5108200;28;20090;-74
2023/09/15 11:13:29;;;;;;;;;;;;;;;22.12;50.20;101797.03;5116898;28;20023;-74
2023/09/15 11:15:55;;;;;;;2.70;1.42;;;;;;;21.90;50.33;101757.91;5114671;28;19919;-74
2023/09/15 11:18:20;;;;;;;1.98;1.48;;;;;;;22.12;50.58;101789.78;5111821;28;20023;-74
2023/09/15 11:20:45;;;;;;;1.50;1.17;;;;;;;21.90;50.21;101757.91;5115286;28;20537;-74